createdAt,value
2018-05-10T00:00:51.150Z,979.42
2018-05-10T00:01:51.120Z,979.4
2018-05-10T00:02:51.134Z,979.39
2018-05-10T00:03:51.130Z,979.42
2018-05-10T00:04:51.126Z,979.38
2018-05-10T00:05:51.172Z,979.37
2018-05-10T00:06:51.116Z,979.39
2018-05-10T00:07:51.124Z,979.33
2018-05-10T00:08:51.119Z,979.34
2018-05-10T00:09:51.123Z,979.35
2018-05-10T00:10:51.118Z,979.34
2018-05-10T00:11:51.121Z,979.36
2018-05-10T00:12:51.134Z,979.34
2018-05-10T00:13:51.141Z,979.39
2018-05-10T00:14:51.121Z,979.36
2018-05-10T00:15:51.180Z,979.34
2018-05-10T00:16:51.141Z,979.35
2018-05-10T00:17:51.126Z,979.33
2018-05-10T00:18:51.127Z,979.36
2018-05-10T00:19:51.145Z,979.38
2018-05-10T00:20:51.149Z,979.33
2018-05-10T00:21:51.175Z,979.35
2018-05-10T00:22:51.130Z,979.35
2018-05-10T00:23:51.141Z,979.32
2018-05-10T00:24:51.144Z,979.28
2018-05-10T00:25:51.189Z,979.29
2018-05-10T00:26:51.159Z,979.29
2018-05-10T00:27:51.137Z,979.26
2018-05-10T00:28:51.146Z,979.29
2018-05-10T00:29:51.138Z,979.26
2018-05-10T00:30:51.137Z,979.31
2018-05-10T00:31:51.139Z,979.3
2018-05-10T00:32:51.136Z,979.31
2018-05-10T00:33:51.164Z,979.33
2018-05-10T00:34:51.138Z,979.38
2018-05-10T00:35:51.156Z,979.32
2018-05-10T00:36:51.143Z,979.36
2018-05-10T00:37:51.143Z,979.38
2018-05-10T00:38:51.139Z,979.4
2018-05-10T00:39:51.143Z,979.34
2018-05-10T00:40:51.143Z,979.35
2018-05-10T00:41:51.144Z,979.3
2018-05-10T00:42:51.158Z,979.32
2018-05-10T00:43:51.146Z,979.29
2018-05-10T00:44:51.150Z,979.28
2018-05-10T00:45:51.149Z,979.29
2018-05-10T00:46:51.159Z,979.28
2018-05-10T00:47:51.151Z,979.29
2018-05-10T00:48:51.148Z,979.28
2018-05-10T00:49:51.152Z,979.25
2018-05-10T00:50:51.152Z,979.25
2018-05-10T00:51:51.152Z,979.25
2018-05-10T00:52:51.155Z,979.24
2018-05-10T00:53:51.162Z,979.25
2018-05-10T00:54:51.162Z,979.24
2018-05-10T00:55:51.157Z,979.22
2018-05-10T00:56:51.157Z,979.2
2018-05-10T00:57:51.180Z,979.2
2018-05-10T00:58:51.160Z,979.24
2018-05-10T00:59:51.189Z,979.22
2018-05-10T01:00:51.165Z,979.22
2018-05-10T01:01:51.161Z,979.25
2018-05-10T01:02:51.161Z,979.28
2018-05-10T01:03:51.162Z,979.25
2018-05-10T01:04:51.234Z,979.21
2018-05-10T01:05:51.163Z,979.21
2018-05-10T01:06:51.169Z,979.25
2018-05-10T01:07:51.167Z,979.24
2018-05-10T01:08:51.167Z,979.26
2018-05-10T01:09:51.170Z,979.26
2018-05-10T01:10:51.169Z,979.26
2018-05-10T01:11:51.178Z,979.28
2018-05-10T01:12:51.169Z,979.26
2018-05-10T01:13:51.172Z,979.25
2018-05-10T01:14:51.171Z,979.23
2018-05-10T01:15:51.251Z,979.24
2018-05-10T01:16:51.256Z,979.26
2018-05-10T01:17:51.173Z,979.26
2018-05-10T01:18:51.174Z,979.26
2018-05-10T01:19:51.175Z,979.26
2018-05-10T01:20:51.178Z,979.29
2018-05-10T01:21:51.175Z,979.33
2018-05-10T01:22:51.178Z,979.31
2018-05-10T01:23:51.177Z,979.33
2018-05-10T01:24:51.180Z,979.35
2018-05-10T01:25:51.201Z,979.37
2018-05-10T01:26:51.180Z,979.41
2018-05-10T01:27:51.182Z,979.36
2018-05-10T01:28:51.184Z,979.36
2018-05-10T01:29:51.180Z,979.33
2018-05-10T01:30:51.190Z,979.36
2018-05-10T01:31:51.185Z,979.38
2018-05-10T01:32:51.185Z,979.38
2018-05-10T01:33:51.187Z,979.36
2018-05-10T01:34:51.186Z,979.38
2018-05-10T01:35:51.274Z,979.37
2018-05-10T01:36:51.185Z,979.4
2018-05-10T01:37:51.187Z,979.37
2018-05-10T01:38:51.187Z,979.4
2018-05-10T01:39:51.189Z,979.36
2018-05-10T01:40:51.262Z,979.42
2018-05-10T01:41:51.194Z,979.4
2018-05-10T01:42:51.219Z,979.41
2018-05-10T01:43:51.227Z,979.45
2018-05-10T01:44:51.191Z,979.41
2018-05-10T01:45:51.255Z,979.44
2018-05-10T01:46:51.193Z,979.4
2018-05-10T01:47:51.189Z,979.37
2018-05-10T01:48:51.190Z,979.39
2018-05-10T01:49:51.194Z,979.39
2018-05-10T01:50:51.193Z,979.37
2018-05-10T01:51:51.191Z,979.33
2018-05-10T01:52:51.191Z,979.32
2018-05-10T01:53:51.195Z,979.33
2018-05-10T01:54:51.195Z,979.31
2018-05-10T01:55:51.194Z,979.32
2018-05-10T01:56:51.194Z,979.31
2018-05-10T01:57:51.195Z,979.31
2018-05-10T01:58:51.198Z,979.3
2018-05-10T01:59:51.198Z,979.3
2018-05-10T02:00:51.194Z,979.33
2018-05-10T02:01:51.196Z,979.36
2018-05-10T02:02:51.195Z,979.37
2018-05-10T02:03:51.198Z,979.43
2018-05-10T02:04:51.197Z,979.4
2018-05-10T02:05:51.195Z,979.39
2018-05-10T02:06:51.198Z,979.46
2018-05-10T02:07:51.203Z,979.43
2018-05-10T02:08:51.199Z,979.43
2018-05-10T02:09:51.196Z,979.46
2018-05-10T02:10:51.227Z,979.49
2018-05-10T02:11:51.198Z,979.48
2018-05-10T02:12:51.198Z,979.51
2018-05-10T02:13:51.200Z,979.49
2018-05-10T02:14:51.266Z,979.49
2018-05-10T02:15:51.201Z,979.5
2018-05-10T02:16:51.200Z,979.48
2018-05-10T02:17:51.209Z,979.48
2018-05-10T02:18:51.214Z,979.47
2018-05-10T02:19:51.222Z,979.47
2018-05-10T02:20:51.226Z,979.49
2018-05-10T02:21:51.201Z,979.49
2018-05-10T02:22:51.217Z,979.54
2018-05-10T02:23:51.204Z,979.49
2018-05-10T02:24:51.204Z,979.51
2018-05-10T02:25:51.256Z,979.54
2018-05-10T02:26:51.224Z,979.57
2018-05-10T02:27:51.226Z,979.53
2018-05-10T02:28:51.210Z,979.58
2018-05-10T02:29:51.272Z,979.57
2018-05-10T02:30:51.222Z,979.54
2018-05-10T02:31:51.241Z,979.6
2018-05-10T02:32:51.203Z,979.59
2018-05-10T02:33:51.207Z,979.6
2018-05-10T02:34:51.203Z,979.62
2018-05-10T02:35:51.256Z,979.61
2018-05-10T02:36:51.204Z,979.62
2018-05-10T02:37:51.225Z,979.62
2018-05-10T02:38:51.216Z,979.61
2018-05-10T02:39:51.214Z,979.65
2018-05-10T02:40:51.389Z,979.61
2018-05-10T02:41:51.207Z,979.66
2018-05-10T02:42:51.204Z,979.7
2018-05-10T02:43:51.224Z,979.72
2018-05-10T02:44:51.248Z,979.7
2018-05-10T02:45:51.234Z,979.65
2018-05-10T02:46:51.207Z,979.72
2018-05-10T02:47:51.225Z,979.76
2018-05-10T02:48:51.217Z,979.8
2018-05-10T02:49:51.213Z,979.79
2018-05-10T02:50:51.215Z,979.79
2018-05-10T02:51:51.214Z,979.82
2018-05-10T02:52:51.210Z,979.8
2018-05-10T02:53:51.233Z,979.82
2018-05-10T02:54:51.214Z,979.86
2018-05-10T02:55:51.310Z,979.9
2018-05-10T02:56:51.232Z,979.87
2018-05-10T02:57:51.273Z,979.88
2018-05-10T02:58:51.204Z,979.93
2018-05-10T02:59:51.233Z,979.95
2018-05-10T03:00:51.288Z,979.95
2018-05-10T03:01:51.215Z,979.96
2018-05-10T03:02:51.248Z,979.97
2018-05-10T03:03:51.212Z,979.95
2018-05-10T03:04:51.235Z,979.97
2018-05-10T03:05:51.218Z,980
2018-05-10T03:06:51.218Z,979.96
2018-05-10T03:07:51.224Z,980.01
2018-05-10T03:08:51.213Z,980.03
2018-05-10T03:09:51.209Z,980
2018-05-10T03:10:51.252Z,980.01
2018-05-10T03:11:51.248Z,980
2018-05-10T03:12:51.219Z,979.96
2018-05-10T03:13:51.218Z,979.97
2018-05-10T03:14:51.205Z,979.95
2018-05-10T03:15:51.211Z,979.97
2018-05-10T03:16:51.215Z,979.97
2018-05-10T03:17:51.221Z,979.97
2018-05-10T03:18:51.215Z,979.97
2018-05-10T03:19:51.222Z,979.95
2018-05-10T03:20:51.227Z,979.95
2018-05-10T03:21:51.217Z,979.97
2018-05-10T03:22:51.218Z,979.99
2018-05-10T03:23:51.213Z,980.01
2018-05-10T03:24:51.218Z,980.02
2018-05-10T03:25:51.215Z,980.04
2018-05-10T03:26:51.215Z,980.05
2018-05-10T03:27:51.229Z,980.09
2018-05-10T03:28:51.221Z,980.11
2018-05-10T03:29:51.232Z,980.06
2018-05-10T03:30:51.233Z,980.07
2018-05-10T03:31:51.228Z,980.09
2018-05-10T03:32:51.235Z,980.08
2018-05-10T03:33:51.227Z,980.08
2018-05-10T03:34:51.229Z,980.06
2018-05-10T03:35:51.220Z,980.04
2018-05-10T03:36:51.216Z,980.03
2018-05-10T03:37:51.239Z,980.02
2018-05-10T03:38:51.235Z,980.03
2018-05-10T03:39:51.232Z,980.01
2018-05-10T03:40:51.219Z,980.06
2018-05-10T03:41:51.225Z,980.05
2018-05-10T03:42:51.238Z,980.08
2018-05-10T03:43:51.237Z,980.07
2018-05-10T03:44:51.216Z,980.07
2018-05-10T03:45:51.238Z,980.07
2018-05-10T03:46:51.214Z,980.09
2018-05-10T03:47:51.211Z,980.13
2018-05-10T03:48:51.215Z,980.09
2018-05-10T03:49:51.213Z,980.1
2018-05-10T03:50:51.242Z,980.12
2018-05-10T03:51:51.213Z,980.15
2018-05-10T03:52:51.248Z,980.15
2018-05-10T03:53:51.227Z,980.18
2018-05-10T03:54:51.220Z,980.18
2018-05-10T03:55:51.225Z,980.23
2018-05-10T03:56:51.244Z,980.24
2018-05-10T03:57:51.232Z,980.27
2018-05-10T03:58:51.221Z,980.28
2018-05-10T03:59:51.222Z,980.28
2018-05-10T04:00:51.228Z,980.25
2018-05-10T04:01:51.223Z,980.23
2018-05-10T04:02:51.248Z,980.28
2018-05-10T04:03:51.249Z,980.27
2018-05-10T04:04:51.245Z,980.27
2018-05-10T04:05:51.313Z,980.3
2018-05-10T04:06:51.223Z,980.31
2018-05-10T04:07:51.222Z,980.32
2018-05-10T04:08:51.232Z,980.32
2018-05-10T04:09:51.232Z,980.34
2018-05-10T04:10:51.292Z,980.29
2018-05-10T04:11:51.223Z,980.35
2018-05-10T04:12:51.233Z,980.34
2018-05-10T04:13:51.226Z,980.33
2018-05-10T04:14:51.246Z,980.31
2018-05-10T04:15:51.221Z,980.33
2018-05-10T04:16:51.255Z,980.36
2018-05-10T04:17:51.227Z,980.37
2018-05-10T04:18:51.225Z,980.4
2018-05-10T04:19:51.228Z,980.41
2018-05-10T04:20:51.303Z,980.43
2018-05-10T04:21:51.229Z,980.41
2018-05-10T04:22:51.250Z,980.44
2018-05-10T04:23:51.230Z,980.46
2018-05-10T04:24:51.230Z,980.47
2018-05-10T04:25:51.233Z,980.48
2018-05-10T04:26:51.233Z,980.5
2018-05-10T04:27:51.291Z,980.52
2018-05-10T04:28:51.232Z,980.51
2018-05-10T04:29:51.226Z,980.53
2018-05-10T04:30:51.230Z,980.54
2018-05-10T04:31:51.227Z,980.59
2018-05-10T04:32:51.227Z,980.6
2018-05-10T04:33:51.234Z,980.63
2018-05-10T04:34:51.249Z,980.65
2018-05-10T04:35:51.329Z,980.64
2018-05-10T04:36:51.233Z,980.63
2018-05-10T04:37:51.249Z,980.62
2018-05-10T04:38:51.254Z,980.6
2018-05-10T04:39:51.255Z,980.6
2018-05-10T04:40:51.244Z,980.63
2018-05-10T04:41:51.249Z,980.58
2018-05-10T04:42:51.242Z,980.63
2018-05-10T04:43:51.239Z,980.64
2018-05-10T04:44:51.235Z,980.6
2018-05-10T04:45:51.287Z,980.63
2018-05-10T04:46:51.248Z,980.58
2018-05-10T04:47:51.241Z,980.58
2018-05-10T04:48:51.247Z,980.58
2018-05-10T04:49:51.244Z,980.6
2018-05-10T04:50:51.247Z,980.6
2018-05-10T04:51:51.253Z,980.66
2018-05-10T04:52:51.252Z,980.65
2018-05-10T04:53:51.244Z,980.69
2018-05-10T04:54:51.252Z,980.66
2018-05-10T04:55:51.245Z,980.67
2018-05-10T04:56:51.286Z,980.71
2018-05-10T04:57:51.258Z,980.69
2018-05-10T04:58:51.248Z,980.71
2018-05-10T04:59:51.251Z,980.69
2018-05-10T05:00:51.254Z,980.72
2018-05-10T05:01:51.252Z,980.76
2018-05-10T05:02:51.264Z,980.73
2018-05-10T05:03:51.257Z,980.76
2018-05-10T05:04:51.258Z,980.82
2018-05-10T05:05:51.261Z,980.84
2018-05-10T05:06:51.259Z,980.83
2018-05-10T05:07:51.268Z,980.87
2018-05-10T05:08:51.372Z,980.9
2018-05-10T05:09:51.266Z,980.92
2018-05-10T05:10:51.308Z,980.9
2018-05-10T05:11:51.275Z,980.93
2018-05-10T05:12:51.293Z,980.96
2018-05-10T05:13:51.273Z,980.94
2018-05-10T05:14:51.274Z,980.98
2018-05-10T05:15:51.277Z,980.98
2018-05-10T05:16:51.275Z,981
2018-05-10T05:17:51.279Z,981.03
2018-05-10T05:18:51.285Z,981.03
2018-05-10T05:19:51.284Z,981.05
2018-05-10T05:20:51.284Z,981.07
2018-05-10T05:21:51.294Z,981.09
2018-05-10T05:22:51.288Z,980.99
2018-05-10T05:23:51.288Z,981.04
2018-05-10T05:24:51.289Z,981.03
2018-05-10T05:25:51.369Z,981.02
2018-05-10T05:26:51.378Z,981.04
2018-05-10T05:27:51.298Z,981.03
2018-05-10T05:28:51.304Z,981.03
2018-05-10T05:29:51.303Z,981.18
2018-05-10T05:30:51.303Z,981.24
2018-05-10T05:31:51.303Z,981.29
2018-05-10T05:32:51.307Z,981.25
2018-05-10T05:33:51.310Z,981.26
2018-05-10T05:34:51.312Z,981.28
2018-05-10T05:35:51.314Z,981.26
2018-05-10T05:36:51.317Z,981.3
2018-05-10T05:37:51.320Z,981.28
2018-05-10T05:38:51.325Z,981.35
2018-05-10T05:39:51.332Z,981.29
2018-05-10T05:40:51.334Z,981.37
2018-05-10T05:41:51.333Z,981.35
2018-05-10T05:42:51.341Z,981.34
2018-05-10T05:43:51.346Z,981.36
2018-05-10T05:44:51.349Z,981.35
2018-05-10T05:45:51.352Z,981.4
2018-05-10T05:46:51.368Z,981.36
2018-05-10T05:47:51.372Z,981.36
2018-05-10T05:48:51.368Z,981.37
2018-05-10T05:49:51.390Z,981.38
2018-05-10T05:50:51.401Z,981.38
2018-05-10T05:51:51.387Z,981.35
2018-05-10T05:52:51.392Z,981.4
2018-05-10T05:53:51.402Z,981.42
2018-05-10T05:54:51.430Z,981.38
2018-05-10T05:55:51.496Z,981.37
2018-05-10T05:56:51.416Z,981.35
2018-05-10T05:57:51.437Z,981.37
2018-05-10T05:58:51.445Z,981.39
2018-05-10T05:59:51.446Z,981.33
2018-05-10T06:00:51.492Z,981.32
2018-05-10T06:01:51.462Z,981.36
2018-05-10T06:02:51.452Z,981.37
2018-05-10T06:03:51.459Z,981.38
2018-05-10T06:04:51.468Z,981.41
2018-05-10T06:05:51.544Z,981.4
2018-05-10T06:06:51.489Z,981.44
2018-05-10T06:07:51.514Z,981.43
2018-05-10T06:08:51.502Z,981.42
2018-05-10T06:09:51.507Z,981.46
2018-05-10T06:10:51.516Z,981.4
2018-05-10T06:11:51.512Z,981.49
2018-05-10T06:12:51.528Z,981.49
2018-05-10T06:13:51.523Z,981.47
2018-05-10T06:23:50.937Z,981.58
2018-05-10T06:24:50.988Z,981.6
2018-05-10T06:25:51.026Z,981.59
2018-05-10T06:26:50.931Z,981.63
2018-05-10T06:27:50.932Z,981.62
2018-05-10T06:28:50.947Z,981.68
2018-05-10T06:29:50.953Z,981.64
2018-05-10T06:30:50.942Z,981.66
2018-05-10T06:31:50.943Z,981.68
2018-05-10T06:32:50.947Z,981.7
2018-05-10T06:33:50.962Z,981.68
2018-05-10T06:34:50.956Z,981.71
2018-05-10T06:35:51.023Z,981.72
2018-05-10T06:36:50.976Z,981.76
2018-05-10T06:37:50.966Z,981.77
2018-05-10T06:38:50.965Z,981.75
2018-05-10T06:39:51.005Z,981.81
2018-05-10T06:40:50.993Z,981.74
2018-05-10T06:41:50.976Z,981.8
2018-05-10T06:42:50.985Z,981.78
2018-05-10T06:43:50.979Z,981.78
2018-05-10T06:44:50.993Z,981.81
2018-05-10T06:45:51.066Z,981.84
2018-05-10T06:46:51.085Z,981.81
2018-05-10T06:47:50.991Z,981.83
2018-05-10T06:48:50.994Z,981.86
2018-05-10T06:49:51.009Z,981.86
2018-05-10T06:50:51.003Z,981.86
2018-05-10T06:51:51.006Z,981.85
2018-05-10T06:52:51.043Z,981.86
2018-05-10T06:53:51.010Z,981.89
2018-05-10T06:54:51.012Z,981.9
2018-05-10T06:55:51.056Z,981.9
2018-05-10T06:56:51.022Z,981.92
2018-05-10T06:57:51.035Z,981.99
2018-05-10T06:58:51.025Z,982
2018-05-10T06:59:51.026Z,982
2018-05-10T07:00:51.078Z,982.04
2018-05-10T07:01:51.042Z,982.03
2018-05-10T07:02:51.043Z,982.08
2018-05-10T07:03:51.042Z,982.08
2018-05-10T07:04:51.041Z,982.09
2018-05-10T07:05:51.047Z,982.16
2018-05-10T07:06:51.050Z,982.14
2018-05-10T07:07:51.048Z,982.15
2018-05-10T07:08:51.054Z,982.15
2018-05-10T07:09:51.242Z,982.17
2018-05-10T07:10:51.062Z,982.13
2018-05-10T07:11:51.067Z,982.16
2018-05-10T07:12:51.069Z,982.12
2018-05-10T07:13:51.074Z,982.11
2018-05-10T07:14:51.076Z,982.1
2018-05-10T07:15:51.084Z,982.09
2018-05-10T07:16:51.087Z,982.1
2018-05-10T07:17:51.092Z,982.13
2018-05-10T07:18:51.094Z,982.14
2018-05-10T07:19:51.105Z,982.16
2018-05-10T07:20:51.150Z,982.2
2018-05-10T07:21:51.111Z,982.2
2018-05-10T07:22:51.121Z,982.22
2018-05-10T07:23:51.122Z,982.15
2018-05-10T07:24:51.125Z,982.21
2018-05-10T07:25:51.134Z,982.2
2018-05-10T07:26:51.142Z,982.18
2018-05-10T07:27:51.165Z,982.15
2018-05-10T07:28:51.148Z,982.19
2018-05-10T07:29:51.155Z,982.15
2018-05-10T07:30:51.157Z,982.17
2018-05-10T07:31:51.166Z,982.19
2018-05-10T07:32:51.227Z,982.21
2018-05-10T07:33:51.177Z,982.19
2018-05-10T07:34:51.183Z,982.17
2018-05-10T07:35:51.187Z,982.23
2018-05-10T07:36:51.193Z,982.3
2018-05-10T07:37:51.199Z,982.29
2018-05-10T07:38:51.205Z,982.36
2018-05-10T07:39:51.212Z,982.38
2018-05-10T07:40:51.281Z,982.39
2018-05-10T07:41:51.226Z,982.45
2018-05-10T07:42:51.233Z,982.56
2018-05-10T07:43:51.256Z,982.53
2018-05-10T07:44:51.250Z,982.51
2018-05-10T07:45:51.249Z,982.5
2018-05-10T07:46:51.255Z,982.48
2018-05-10T07:47:51.271Z,982.57
2018-05-10T07:48:51.267Z,982.62
2018-05-10T07:49:51.274Z,982.66
2018-05-10T07:50:51.361Z,982.6
2018-05-10T07:51:51.288Z,982.53
2018-05-10T07:52:51.306Z,982.53
2018-05-10T07:53:51.310Z,982.54
2018-05-10T07:54:51.308Z,982.57
2018-05-10T07:55:51.337Z,982.61
2018-05-10T07:56:51.323Z,982.61
2018-05-10T07:57:51.329Z,982.63
2018-05-10T07:58:51.387Z,982.66
2018-05-10T07:59:51.353Z,982.69
2018-05-10T08:00:51.349Z,982.7
2018-05-10T08:01:51.355Z,982.78
2018-05-10T08:02:51.367Z,982.79
2018-05-10T08:03:51.379Z,982.79
2018-05-10T08:04:51.380Z,982.82
2018-05-10T08:05:51.379Z,982.85
2018-05-10T08:06:51.387Z,982.85
2018-05-10T08:07:51.406Z,982.88
2018-05-10T08:08:51.407Z,982.92
2018-05-10T08:09:51.405Z,982.98
2018-05-10T08:10:51.411Z,982.97
2018-05-10T08:11:51.430Z,983
2018-05-10T08:12:51.431Z,983.03
2018-05-10T08:13:51.431Z,983.04
2018-05-10T08:14:51.446Z,983.07
2018-05-10T08:15:51.441Z,983.05
2018-05-10T08:16:51.459Z,983.06
2018-05-10T08:17:51.450Z,982.99
2018-05-10T08:18:51.456Z,983.07
2018-05-10T08:19:51.471Z,983.06
2018-05-10T08:20:51.491Z,983.11
2018-05-10T08:21:51.470Z,983.06
2018-05-10T08:22:51.484Z,983.11
2018-05-10T08:23:51.495Z,983.15
2018-05-10T08:24:51.488Z,983.15
2018-05-10T08:25:51.530Z,983.15
2018-05-10T08:26:51.507Z,983.12
2018-05-10T08:27:51.501Z,983.23
2018-05-10T08:28:51.505Z,983.3
2018-05-10T08:29:51.508Z,983.37
2018-05-10T08:30:51.578Z,983.38
2018-05-10T08:31:51.514Z,983.38
2018-05-10T08:32:51.545Z,983.41
2018-05-10T08:33:51.539Z,983.41
2018-05-10T08:34:51.531Z,983.45
2018-05-10T08:35:51.532Z,983.43
2018-05-10T08:36:51.578Z,983.43
2018-05-10T08:37:51.552Z,983.43
2018-05-10T08:38:51.555Z,983.46
2018-05-10T08:39:51.558Z,983.56
2018-05-10T08:40:51.557Z,983.57
2018-05-10T08:41:51.560Z,983.61
2018-05-10T08:42:51.573Z,983.64
2018-05-10T08:43:51.589Z,983.67
2018-05-10T08:44:51.573Z,983.72
2018-05-10T08:45:51.597Z,983.74
2018-05-10T08:46:51.586Z,983.72
2018-05-10T08:47:51.590Z,983.74
2018-05-10T08:48:51.599Z,983.75
2018-05-10T08:49:51.598Z,983.75
2018-05-10T08:50:51.604Z,983.76
2018-05-10T08:51:51.732Z,983.81
2018-05-10T08:52:51.612Z,983.8
2018-05-10T08:53:51.632Z,983.79
2018-05-10T08:54:51.628Z,983.87
2018-05-10T08:55:51.635Z,983.83
2018-05-10T08:56:51.630Z,983.9
2018-05-10T08:57:51.647Z,983.89
2018-05-10T08:58:51.695Z,983.88
2018-05-10T08:59:51.647Z,983.83
2018-05-10T09:00:51.652Z,983.9
2018-05-10T09:01:51.656Z,983.93
2018-05-10T09:02:51.663Z,983.89
2018-05-10T09:03:51.667Z,983.91
2018-05-10T09:04:51.670Z,983.94
2018-05-10T09:05:51.776Z,983.92
2018-05-10T09:06:51.679Z,983.97
2018-05-10T09:07:51.693Z,984.05
2018-05-10T09:08:51.703Z,984.03
2018-05-10T09:09:51.695Z,984.06
2018-05-10T09:10:51.703Z,984.06
2018-05-10T09:11:51.710Z,984.13
2018-05-10T09:12:51.705Z,984.12
2018-05-10T09:13:51.713Z,984.15
2018-05-10T09:14:51.717Z,984.16
2018-05-10T09:15:51.783Z,984.17
2018-05-10T09:16:51.724Z,984.19
2018-05-10T09:17:51.729Z,984.2
2018-05-10T09:18:51.731Z,984.25
2018-05-10T09:19:51.734Z,984.28
2018-05-10T09:20:51.772Z,984.31
2018-05-10T09:21:51.745Z,984.35
2018-05-10T09:22:51.753Z,984.33
2018-05-10T09:23:51.754Z,984.47
2018-05-10T09:24:51.757Z,984.43
2018-05-10T09:25:51.810Z,984.45
2018-05-10T09:26:51.762Z,984.45
2018-05-10T09:27:51.769Z,984.42
2018-05-10T09:28:51.821Z,984.51
2018-05-10T09:29:51.774Z,984.5
2018-05-10T09:30:51.820Z,984.51
2018-05-10T09:31:51.848Z,984.54
2018-05-10T09:32:51.784Z,984.55
2018-05-10T09:33:51.876Z,984.54
2018-05-10T09:34:51.797Z,984.58
2018-05-10T09:35:51.799Z,984.61
2018-05-10T09:36:51.799Z,984.67
2018-05-10T09:37:51.811Z,984.69
2018-05-10T09:38:51.806Z,984.68
2018-05-10T09:39:51.813Z,984.71
2018-05-10T09:40:51.887Z,984.72
2018-05-10T09:41:51.818Z,984.7
2018-05-10T09:42:51.820Z,984.72
2018-05-10T09:43:51.828Z,984.66
2018-05-10T09:44:51.906Z,984.64
2018-05-10T09:45:51.834Z,984.62
2018-05-10T09:46:51.835Z,984.65
2018-05-10T09:47:51.838Z,984.65
2018-05-10T09:48:51.838Z,984.64
2018-05-10T09:49:51.845Z,984.73
2018-05-10T09:50:51.899Z,984.8
2018-05-10T09:51:51.848Z,984.7
2018-05-10T09:52:51.855Z,984.73
2018-05-10T09:53:51.858Z,984.77
2018-05-10T09:54:51.867Z,984.76
2018-05-10T09:55:51.861Z,984.76
2018-05-10T09:56:51.864Z,984.74
2018-05-10T09:57:51.866Z,984.79
2018-05-10T09:58:51.866Z,984.77
2018-05-10T09:59:51.896Z,984.76
2018-05-10T10:00:51.883Z,984.77
2018-05-10T10:01:51.880Z,984.78
2018-05-10T10:02:51.881Z,984.83
2018-05-10T10:03:51.903Z,984.83
2018-05-10T10:04:51.886Z,984.79
2018-05-10T10:05:51.894Z,984.83
2018-05-10T10:06:51.889Z,984.8
2018-05-10T10:07:51.897Z,984.88
2018-05-10T10:08:51.896Z,984.85
2018-05-10T10:09:51.910Z,984.84
2018-05-10T10:10:51.993Z,984.89
2018-05-10T10:11:51.901Z,984.87
2018-05-10T10:12:51.904Z,984.83
2018-05-10T10:13:51.908Z,984.85
2018-05-10T10:14:51.908Z,984.86
2018-05-10T10:15:51.921Z,984.84
2018-05-10T10:16:51.917Z,984.87
2018-05-10T10:17:51.924Z,984.87
2018-05-10T10:18:51.922Z,984.9
2018-05-10T10:19:51.926Z,984.95
2018-05-10T10:20:52.000Z,984.94
2018-05-10T10:21:51.932Z,984.95
2018-05-10T10:53:09.683Z,985.22
2018-05-10T10:54:08.826Z,985.22
2018-05-10T10:55:08.816Z,985.24
2018-05-10T10:56:08.817Z,985.26
2018-05-10T10:57:08.820Z,985.28
2018-05-10T10:58:08.816Z,985.24
2018-05-10T10:59:08.817Z,985.2
2018-05-10T11:00:08.862Z,985.21
2018-05-10T11:01:08.821Z,985.26
2018-05-10T11:02:08.821Z,985.26
2018-05-10T11:03:08.820Z,985.31
2018-05-10T11:04:08.823Z,985.29
2018-05-10T11:05:08.998Z,985.25
2018-05-10T11:06:08.833Z,985.32
2018-05-10T11:07:08.833Z,985.33
2018-05-10T11:08:08.831Z,985.32
2018-05-10T11:09:08.922Z,985.31
2018-05-10T11:10:09.015Z,985.34
2018-05-10T11:11:08.848Z,985.37
2018-05-10T11:12:08.845Z,985.38
2018-05-10T11:13:08.849Z,985.33
2018-05-10T11:14:08.849Z,985.34
2018-05-10T11:15:09.054Z,985.35
2018-05-10T11:16:08.858Z,985.34
2018-05-10T11:17:08.861Z,985.34
2018-05-10T11:18:08.868Z,985.3
2018-05-10T11:19:08.868Z,985.34
2018-05-10T11:20:09.021Z,985.36
2018-05-10T11:21:08.878Z,985.4
2018-05-10T11:22:08.894Z,985.38
2018-05-10T11:23:08.891Z,985.41
2018-05-10T11:24:08.893Z,985.47
2018-05-10T11:25:08.924Z,985.46
2018-05-10T11:26:08.898Z,985.46
2018-05-10T11:27:08.901Z,985.49
2018-05-10T11:28:08.906Z,985.48
2018-05-10T11:29:08.913Z,985.52
2018-05-10T11:30:09.035Z,985.46
2018-05-10T11:31:08.919Z,985.51
2018-05-10T11:32:08.924Z,985.5
2018-05-10T11:33:10.195Z,985.53
2018-05-10T11:34:08.932Z,985.5
2018-05-10T11:35:08.975Z,985.51
2018-05-10T11:36:09.007Z,985.42
2018-05-10T11:37:08.946Z,985.46
2018-05-10T11:38:08.949Z,985.48
2018-05-10T11:39:09.031Z,985.5
2018-05-10T11:40:09.195Z,985.48
2018-05-10T11:41:08.961Z,985.53
2018-05-10T11:42:08.965Z,985.53
2018-05-10T11:43:08.973Z,985.55
2018-05-10T11:44:08.975Z,985.57
2018-05-10T11:45:09.036Z,985.57
2018-05-10T11:46:08.992Z,985.55
2018-05-10T11:47:08.998Z,985.58
2018-05-10T11:48:08.995Z,985.57
2018-05-10T11:49:08.996Z,985.59
2018-05-10T11:50:09.144Z,985.58
2018-05-10T11:51:09.003Z,985.61
2018-05-10T11:52:09.009Z,985.59
2018-05-10T11:53:09.011Z,985.62
2018-05-10T11:54:10.922Z,985.64
2018-05-10T11:55:09.239Z,985.63
2018-05-10T11:56:09.038Z,985.7
2018-05-10T11:57:09.044Z,985.7
2018-05-10T11:58:09.041Z,985.67
2018-05-10T11:59:09.049Z,985.69
2018-05-10T12:00:09.107Z,985.71
2018-05-10T12:01:09.043Z,985.77
2018-05-10T12:02:09.048Z,985.76
2018-05-10T12:03:09.053Z,985.8
2018-05-10T12:04:09.059Z,985.85
2018-05-10T12:05:09.147Z,985.78
2018-05-10T12:06:09.136Z,985.79
2018-05-10T12:07:09.071Z,985.83
2018-05-10T12:08:09.075Z,985.88
2018-05-10T12:09:09.077Z,985.85
2018-05-10T12:10:09.392Z,985.94
2018-05-10T12:11:09.182Z,985.91
2018-05-10T12:12:09.088Z,985.89
2018-05-10T12:13:09.105Z,985.87
2018-05-10T12:14:09.105Z,985.84
2018-05-10T12:15:09.241Z,985.85
2018-05-10T12:16:09.107Z,985.88
2018-05-10T12:17:09.115Z,985.95
2018-05-10T12:18:09.114Z,985.88
2018-05-10T12:19:09.135Z,985.91
2018-05-10T12:20:09.280Z,985.96
2018-05-10T12:21:09.125Z,986
2018-05-10T12:22:09.127Z,986
2018-05-10T12:23:09.134Z,986.1
2018-05-10T12:24:09.142Z,986.08
2018-05-10T12:25:09.609Z,986.07
2018-05-10T12:26:09.144Z,986.07
2018-05-10T12:27:09.158Z,986.07
2018-05-10T12:28:09.156Z,986.1
2018-05-10T12:29:09.162Z,986.09
2018-05-10T12:30:09.385Z,986.03
2018-05-10T12:31:09.165Z,986.05
2018-05-10T12:32:09.169Z,986.11
2018-05-10T12:33:09.172Z,986.08
2018-05-10T12:34:09.177Z,986.07
2018-05-10T12:35:09.239Z,986.13
2018-05-10T12:36:09.186Z,986.07
2018-05-10T12:37:09.191Z,986.1
2018-05-10T12:38:09.201Z,986.05
2018-05-10T12:39:09.200Z,986.07
2018-05-10T12:40:09.286Z,986.09
2018-05-10T12:41:09.207Z,986.08
2018-05-10T12:42:09.209Z,986.04
2018-05-10T12:43:09.210Z,986.02
2018-05-10T12:44:09.228Z,986.03
2018-05-10T12:45:09.274Z,985.97
2018-05-10T12:46:09.225Z,985.9
2018-05-10T12:47:09.229Z,985.96
2018-05-10T12:48:09.234Z,985.99
2018-05-10T12:49:09.237Z,985.95
2018-05-10T12:50:09.326Z,985.97
2018-05-10T12:51:09.257Z,985.94
2018-05-10T12:52:09.249Z,985.9
2018-05-10T12:53:09.254Z,985.93
2018-05-10T12:54:09.257Z,985.96
2018-05-10T12:55:09.330Z,986
2018-05-10T12:56:09.383Z,986.06
2018-05-10T12:57:09.268Z,986.02
2018-05-10T12:58:09.273Z,985.99
2018-05-10T12:59:09.277Z,985.98
2018-05-10T13:00:09.402Z,985.94
2018-05-10T13:01:09.286Z,985.99
2018-05-10T13:02:09.291Z,985.95
2018-05-10T13:03:09.300Z,985.96
2018-05-10T13:04:09.299Z,985.93
2018-05-10T13:05:09.478Z,985.96
2018-05-10T13:06:09.305Z,985.94
2018-05-10T13:07:09.307Z,985.94
2018-05-10T13:08:09.309Z,985.95
2018-05-10T13:09:09.314Z,985.95
2018-05-10T13:10:09.522Z,986.01
2018-05-10T13:11:09.320Z,985.99